Time;durP1;ratioP1;P1;durP2;ratioP2;P2;SDS_P1;SDS_P2;PMS_P1;PMS_P2;Temp;Humidity;BMP_temperature;BMP_pressure;BME280_temperature;BME280_humidity;BME280_pressure;Samples;Min_cycle;Max_cycle;Signal;HPM_P1;HPM_P2
2022/06/20 00:15:35;;;;;;;0.10;0.10;;;;;;;;;;5822043;23;20038;-95
2022/06/20 00:45:24;;;;;;;0.10;0.10;;;;;;;;;;4845109;29;20521;-96
2022/06/20 02:48:26;;;;;;;0.10;0.10;;;;;;;;;;5796716;23;20946;-95
2022/06/20 02:50:56;;;;;;;0.10;0.10;;;;;;;;;;4810304;29;20089;-94
2022/06/20 02:53:35;;;;;;;;;;;;;;;;;;;;;
2022/06/20 03:12:02;;;;;;;;;;;;;;;;;;;;;
2022/06/20 03:20:26;;;;;;;0.10;0.10;;;;;;;;;;4825911;29;20064;-96
2022/06/20 03:22:54;;;;;;;0.10;0.10;;;;;;;;;;4808962;29;20082;-95
2022/06/20 03:25:20;;;;;;;0.10;0.10;;;;;;;;;;4808510;29;20106;-94
2022/06/20 03:27:56;;;;;;;;;;;;;;;;;;;;;
2022/06/20 03:30:27;;;;;;;0.10;0.10;;;;;;;;;;4810464;29;20042;-95
2022/06/20 03:32:53;;;;;;;0.10;0.10;;;;;;;;;;4808987;29;20137;-95
2022/06/20 03:35:59;;;;;;;;;;;;;;;;;;;;;
2022/06/20 03:38:36;;;;;;;0.10;0.10;;;;;;;;;;4826465;29;20061;-94
2022/06/20 03:41:08;;;;;;;0.10;0.10;;;;;;;;;;4825034;29;20456;-95
2022/06/20 03:43:34;;;;;;;0.08;0.08;;;;;;;;;;4808835;29;20099;-96
2022/06/20 03:46:01;;;;;;;0.10;0.10;;;;;;;;;;4809472;29;20043;-96
2022/06/20 03:48:34;;;;;;;0.10;0.10;;;;;;;;;;4809316;29;20136;-96
2022/06/20 03:51:26;;;;;;;0.10;0.10;;;;;;;;;;4808779;29;20110;-95
2022/06/20 03:53:55;;;;;;;0.10;0.10;;;;;;;;;;4791769;29;20061;-96
2022/06/20 03:56:23;;;;;;;0.10;0.10;;;;;;;;;;4808266;29;20095;-95
2022/06/20 04:37:34;;;;;;;0.10;0.10;;;;;;;;;;5329901;23;20053;-96
2022/06/20 04:40:36;;;;;;;0.10;0.10;;;;;;;;;;4851523;29;20055;-96
2022/06/20 04:43:06;;;;;;;0.10;0.10;;;;;;;;;;4870555;29;20045;-96
2022/06/20 04:45:43;;;;;;;0.10;0.10;;;;;;;;;;4853342;29;20048;-95
2022/06/20 04:48:16;;;;;;;0.10;0.10;;;;;;;;;;4855802;29;20081;-96
2022/06/20 04:50:50;;;;;;;0.10;0.10;;;;;;;;;;4849882;29;20546;-96
2022/06/20 04:59:08;;;;;;;;;;;;;;;;;;;;;
2022/06/20 05:02:19;;;;;;;0.10;0.10;;;;;;;;;;4855727;29;20056;-96
2022/06/20 05:53:25;;;;;;;0.10;0.10;;;;;;;;;;5593040;23;20057;-96
2022/06/20 06:08:55;;;;;;;0.10;0.10;;;;;;;;;;5902165;23;20028;-93
2022/06/20 06:28:30;;;;;;;0.10;0.10;;;;;;;;;;6164145;22;20111;31
2022/06/20 06:34:43;;;;;;;;;;;;;;;;;;;;;
2022/06/20 06:44:09;;;;;;;;;;;;;;;;;;;;;
2022/06/20 06:47:00;;;;;;;0.25;0.25;;;;;;;;;;6203639;23;20017;-94
2022/06/20 06:49:58;;;;;;;;;;;;;;;;;;;;;
2022/06/20 06:58:34;;;;;;;0.13;0.13;;;;;;;;;;6218082;22;20029;-96
2022/06/20 07:01:13;;;;;;;0.10;0.10;;;;;;;;;;6210716;23;20024;-96
2022/06/20 07:03:42;;;;;;;0.10;0.10;;;;;;;;;;6175973;23;20016;-94
2022/06/20 07:06:37;;;;;;;0.10;0.10;;;;;;;;;;6177145;23;20091;-94
2022/06/20 07:09:16;;;;;;;0.10;0.10;;;;;;;;;;6113381;23;20491;-95
2022/06/20 07:11:46;;;;;;;0.10;0.10;;;;;;;;;;6177102;23;20016;-96
2022/06/20 07:14:15;;;;;;;0.10;0.10;;;;;;;;;;6182726;23;20015;-96
2022/06/20 07:17:05;;;;;;;0.10;0.10;;;;;;;;;;6175912;23;20095;-96
2022/06/20 07:19:37;;;;;;;0.10;0.10;;;;;;;;;;6174805;23;20012;-95
2022/06/20 07:22:06;;;;;;;0.20;0.20;;;;;;;;;;6161221;23;20032;-94
2022/06/20 07:24:33;;;;;;;0.20;0.20;;;;;;;;;;6138249;23;20028;-95
2022/06/20 07:26:59;;;;;;;0.17;0.17;;;;;;;;;;6138961;23;20021;-95
2022/06/20 07:32:47;;;;;;;0.10;0.10;;;;;;;;;;6073281;23;20042;-96
2022/06/20 07:35:27;;;;;;;0.10;0.10;;;;;;;;;;6088256;23;20017;-96
2022/06/20 07:56:16;;;;;;;0.10;0.10;;;;;;;;;;6230488;23;20032;-96
2022/06/20 07:58:46;;;;;;;0.10;0.10;;;;;;;;;;6207988;23;20069;-95
2022/06/20 08:01:18;;;;;;;0.10;0.10;;;;;;;;;;6228986;23;20019;-96
2022/06/20 08:03:51;;;;;;;0.10;0.10;;;;;;;;;;6226213;23;20066;-95
2022/06/20 08:06:36;;;;;;;0.10;0.10;;;;;;;;;;6201467;23;20023;-96
2022/06/20 08:09:08;;;;;;;0.13;0.13;;;;;;;;;;6195781;23;20065;-94
2022/06/20 08:11:42;;;;;;;0.20;0.20;;;;;;;;;;6195060;23;20020;-95
2022/06/20 08:14:18;;;;;;;0.20;0.20;;;;;;;;;;6194503;23;20031;-95
2022/06/20 08:17:01;;;;;;;2.10;0.85;;;;;;;;;;6199705;23;20440;-95
2022/06/20 08:19:28;;;;;;;0.10;0.10;;;;;;;;;;6197522;23;20031;-94
2022/06/20 08:21:57;;;;;;;0.47;0.47;;;;;;;;;;6198449;23;20039;-95
2022/06/20 08:27:55;;;;;;;0.20;0.20;;;;;;;;;;6224401;22;20070;-95
2022/06/20 08:30:41;;;;;;;0.10;0.10;;;;;;;;;;6168872;23;20024;-96
2022/06/20 08:33:18;;;;;;;0.20;0.20;;;;;;;;;;6165141;23;20039;-95
2022/06/20 08:35:47;;;;;;;0.10;0.10;;;;;;;;;;6141551;23;20442;-95
2022/06/20 08:38:23;;;;;;;0.10;0.10;;;;;;;;;;6165669;23;20179;-95
2022/06/20 08:41:10;;;;;;;0.10;0.10;;;;;;;;;;6165956;23;20012;-95
2022/06/20 08:43:42;;;;;;;0.10;0.10;;;;;;;;;;6141984;23;20012;-94
2022/06/20 08:46:08;;;;;;;;;;;;;;;;;;6165872;23;20052;-96
2022/06/20 08:48:48;;;;;;;0.10;0.10;;;;;;;;;;6218162;23;20286;-95
2022/06/20 08:51:33;;;;;;;0.10;0.10;;;;;;;;;;6163563;23;20059;-93
2022/06/20 08:54:18;;;;;;;0.10;0.10;;;;;;;;;;6165195;23;20024;-93
2022/06/20 08:57:02;;;;;;;0.45;0.30;;;;;;;;;;6165092;23;20043;-93
2022/06/20 08:59:42;;;;;;;0.10;0.10;;;;;;;;;;6165379;23;20015;-93
2022/06/20 09:02:20;;;;;;;0.20;0.20;;;;;;;;;;6140822;23;20012;-94
2022/06/20 09:04:49;;;;;;;0.10;0.10;;;;;;;;;;6191469;23;20008;-92
2022/06/20 09:07:22;;;;;;;0.20;0.20;;;;;;;;;;6165631;23;20083;-94
2022/06/20 09:09:54;;;;;;;0.25;0.25;;;;;;;;;;6164651;23;20016;-93
2022/06/20 09:12:20;;;;;;;;;;;;;;;;;;6165837;23;20008;-94
2022/06/20 09:14:49;;;;;;;0.10;0.10;;;;;;;;;;6165077;23;19947;-94
2022/06/20 09:17:27;;;;;;;0.10;0.10;;;;;;;;;;6165029;23;20438;-93
2022/06/20 09:20:09;;;;;;;0.20;0.20;;;;;;;;;;6165558;23;20019;-93
2022/06/20 09:22:35;;;;;;;;;;;;;;;;;;6165887;23;20013;-93
2022/06/20 09:25:19;;;;;;;0.10;0.10;;;;;;;;;;6164884;23;19912;-92
2022/06/20 09:27:57;;;;;;;0.10;0.10;;;;;;;;;;6165110;23;20024;-94
2022/06/20 09:30:28;;;;;;;0.10;0.10;;;;;;;;;;6140680;23;20039;-93
2022/06/20 09:33:10;;;;;;;0.10;0.10;;;;;;;;;;6164931;23;20009;-92
2022/06/20 09:35:49;;;;;;;0.10;0.10;;;;;;;;;;6165342;23;20024;-93
2022/06/20 09:38:36;;;;;;;0.10;0.10;;;;;;;;;;6140983;23;20449;-93
2022/06/20 09:41:08;;;;;;;0.10;0.10;;;;;;;;;;6140782;23;20022;-94
2022/06/20 09:43:52;;;;;;;0.75;0.75;;;;;;;;;;6140735;23;20013;-93
2022/06/20 09:46:28;;;;;;;0.17;0.17;;;;;;;;;;6165215;23;20016;-93
2022/06/20 09:49:15;;;;;;;0.20;0.20;;;;;;;;;;6141671;23;20038;-93
2022/06/20 09:51:48;;;;;;;0.20;0.20;;;;;;;;;;6140242;23;20012;-93
2022/06/20 09:54:20;;;;;;;0.70;0.70;;;;;;;;;;6165063;23;20064;-93
2022/06/20 09:56:55;;;;;;;0.10;0.10;;;;;;;;;;6140490;23;20009;-93
2022/06/20 09:59:27;;;;;;;0.20;0.20;;;;;;;;;;6165308;23;20108;-94
2022/06/20 10:02:01;;;;;;;0.10;0.10;;;;;;;;;;6164644;23;20035;-92
2022/06/20 10:04:33;;;;;;;0.10;0.10;;;;;;;;;;6140631;23;20012;-93
2022/06/20 10:07:10;;;;;;;0.20;0.20;;;;;;;;;;6165091;23;20012;-93
2022/06/20 10:09:46;;;;;;;0.30;0.30;;;;;;;;;;6165186;23;20019;-95
2022/06/20 10:12:23;;;;;;;0.20;0.20;;;;;;;;;;6165991;23;20043;-94
2022/06/20 10:15:02;;;;;;;0.15;0.15;;;;;;;;;;6165136;23;20016;-93
2022/06/20 10:17:31;;;;;;;0.10;0.10;;;;;;;;;;6140680;23;20102;-92
2022/06/20 10:20:16;;;;;;;0.10;0.10;;;;;;;;;;6164813;23;20031;-91
2022/06/20 10:22:50;;;;;;;0.10;0.10;;;;;;;;;;6164063;23;20043;-92
2022/06/20 10:25:38;;;;;;;0.10;0.10;;;;;;;;;;6165375;23;20015;-93
2022/06/20 10:28:10;;;;;;;0.10;0.10;;;;;;;;;;6140716;23;20021;-91
2022/06/20 10:30:47;;;;;;;0.10;0.10;;;;;;;;;;6164875;23;20447;-93
2022/06/20 10:33:40;;;;;;;0.10;0.10;;;;;;;;;;6140040;23;20071;-94
2022/06/20 10:36:25;;;;;;;0.20;0.20;;;;;;;;;;6110353;23;20008;-95
2022/06/20 10:38:54;;;;;;;0.10;0.10;;;;;;;;;;6164737;23;20064;-95
2022/06/20 10:41:29;;;;;;;0.10;0.10;;;;;;;;;;6164742;23;20017;-93
2022/06/20 10:43:58;;;;;;;0.10;0.10;;;;;;;;;;6164941;23;20143;-95
2022/06/20 10:46:44;;;;;;;0.20;0.20;;;;;;;;;;6164906;23;20156;-94
2022/06/20 10:49:16;;;;;;;0.10;0.10;;;;;;;;;;6164772;23;20013;-93
2022/06/20 10:51:47;;;;;;;0.10;0.10;;;;;;;;;;6164446;23;20016;-94
2022/06/20 10:54:16;;;;;;;0.10;0.10;;;;;;;;;;6140769;23;20070;-93
2022/06/20 10:56:45;;;;;;;0.10;0.10;;;;;;;;;;6140578;23;20016;-92
2022/06/20 10:59:17;;;;;;;0.10;0.10;;;;;;;;;;6142502;23;20099;-94
2022/06/20 11:01:43;;;;;;;0.10;0.10;;;;;;;;;;6142005;23;20390;-94
2022/06/20 11:04:18;;;;;;;0.10;0.10;;;;;;;;;;6191451;23;20048;-94
2022/06/20 11:06:57;;;;;;;0.20;0.20;;;;;;;;;;6166044;23;20085;-94
2022/06/20 11:09:26;;;;;;;0.15;0.15;;;;;;;;;;6142404;23;20024;-93
2022/06/20 11:12:06;;;;;;;0.10;0.10;;;;;;;;;;6142158;23;20402;-93
2022/06/20 11:14:39;;;;;;;0.10;0.10;;;;;;;;;;6141766;23;20020;-94
2022/06/20 11:17:08;;;;;;;0.10;0.10;;;;;;;;;;6142227;23;20095;-94
2022/06/20 11:19:37;;;;;;;0.10;0.10;;;;;;;;;;6166603;23;20063;-94
2022/06/20 11:22:03;;;;;;;0.15;0.15;;;;;;;;;;6142226;23;20322;-93
2022/06/20 11:24:37;;;;;;;0.20;0.20;;;;;;;;;;6166001;23;20087;-93
2022/06/20 11:27:10;;;;;;;0.20;0.20;;;;;;;;;;6183994;23;20346;-93
2022/06/20 11:29:52;;;;;;;0.10;0.10;;;;;;;;;;6137053;23;20013;-94
2022/06/20 11:32:25;;;;;;;0.10;0.10;;;;;;;;;;6137114;23;20009;-92
2022/06/20 11:35:01;;;;;;;0.10;0.10;;;;;;;;;;6136812;23;20090;-92
2022/06/20 11:37:49;;;;;;;0.10;0.10;;;;;;;;;;6161701;23;20060;-93
2022/06/20 11:40:24;;;;;;;0.15;0.15;;;;;;;;;;6161057;23;20013;-94
2022/06/20 11:42:54;;;;;;;0.10;0.10;;;;;;;;;;6161101;23;20017;-94
2022/06/20 11:45:26;;;;;;;0.20;0.20;;;;;;;;;;6136609;23;20240;-93
2022/06/20 11:47:52;;;;;;;;;;;;;;;;;;6161357;23;20028;-93
2022/06/20 11:50:22;;;;;;;0.20;0.20;;;;;;;;;;6161228;23;20003;-93
2022/06/20 11:53:08;;;;;;;0.20;0.20;;;;;;;;;;6137186;23;20088;-93
2022/06/20 11:55:37;;;;;;;0.20;0.20;;;;;;;;;;6160858;23;20011;-93
2022/06/20 11:58:21;;;;;;;0.10;0.10;;;;;;;;;;6161058;23;20020;-94
2022/06/20 12:01:05;;;;;;;0.10;0.10;;;;;;;;;;6160851;23;20067;-95
2022/06/20 12:03:40;;;;;;;0.20;0.20;;;;;;;;;;6137272;23;20013;-93
2022/06/20 12:06:07;;;;;;;0.10;0.10;;;;;;;;;;6160881;23;20522;-93
2022/06/20 12:08:51;;;;;;;0.10;0.10;;;;;;;;;;6160832;23;20505;-93
2022/06/20 12:11:53;;;;;;;0.10;0.10;;;;;;;;;;6185789;23;20017;-93
2022/06/20 12:14:41;;;;;;;0.40;0.40;;;;;;;;;;6105578;23;20020;-93
2022/06/20 12:17:30;;;;;;;0.10;0.10;;;;;;;;;;6132993;23;20084;-94
2022/06/20 12:26:00;;;;;;;0.20;0.20;;;;;;;;;;6168282;23;20031;-94
2022/06/20 12:28:46;;;;;;;0.20;0.20;;;;;;;;;;6190559;23;20023;-93
2022/06/20 12:31:32;;;;;;;0.10;0.10;;;;;;;;;;6164576;23;20012;-92
2022/06/20 12:34:04;;;;;;;0.20;0.20;;;;;;;;;;6165363;23;20009;-92
2022/06/20 12:36:30;;;;;;;0.20;0.20;;;;;;;;;;6165880;23;20000;-93
2022/06/20 12:39:02;;;;;;;0.13;0.13;;;;;;;;;;6166191;23;20015;-94
2022/06/20 12:41:29;;;;;;;0.10;0.10;;;;;;;;;;6165110;23;20023;-93
2022/06/20 12:44:21;;;;;;;0.10;0.10;;;;;;;;;;6140932;23;20012;-93
2022/06/20 12:46:54;;;;;;;0.10;0.10;;;;;;;;;;6111098;23;20044;-92
2022/06/20 12:49:20;;;;;;;0.10;0.10;;;;;;;;;;6141292;23;20012;-92
2022/06/20 12:51:55;;;;;;;0.25;0.25;;;;;;;;;;6165638;23;20301;-93
2022/06/20 12:54:40;;;;;;;0.20;0.20;;;;;;;;;;6165333;23;20027;-93
2022/06/20 12:57:12;;;;;;;0.20;0.20;;;;;;;;;;6164954;23;20066;-93
2022/06/20 12:59:41;;;;;;;0.20;0.20;;;;;;;;;;6165538;23;20017;-93
2022/06/20 13:02:07;;;;;;;0.20;0.20;;;;;;;;;;6165434;23;20042;-93
2022/06/20 13:04:54;;;;;;;0.22;0.22;;;;;;;;;;6164769;23;20091;-92
2022/06/20 13:07:20;;;;;;;0.20;0.20;;;;;;;;;;6092240;23;20437;-91
2022/06/20 13:09:48;;;;;;;0.10;0.10;;;;;;;;;;6164369;23;20008;-94
2022/06/20 13:12:28;;;;;;;0.30;0.30;;;;;;;;;;6140991;23;20012;-93
2022/06/20 13:15:09;;;;;;;0.10;0.10;;;;;;;;;;6140160;23;20438;-93
2022/06/20 13:17:46;;;;;;;0.10;0.10;;;;;;;;;;6164568;23;20051;-94
2022/06/20 13:20:31;;;;;;;0.20;0.20;;;;;;;;;;6139961;23;20020;-93
2022/06/20 13:23:15;;;;;;;0.30;0.30;;;;;;;;;;6165169;23;20023;-92
2022/06/20 13:25:48;;;;;;;0.20;0.20;;;;;;;;;;6164471;23;20219;-91
2022/06/20 13:28:18;;;;;;;0.15;0.15;;;;;;;;;;6140760;23;20311;-93
2022/06/20 13:30:54;;;;;;;0.10;0.10;;;;;;;;;;6140784;23;20048;-94
2022/06/20 13:33:32;;;;;;;0.13;0.13;;;;;;;;;;6165656;23;20016;-93
2022/06/20 13:36:04;;;;;;;0.10;0.10;;;;;;;;;;6164675;23;20059;-93
2022/06/20 13:38:43;;;;;;;0.10;0.10;;;;;;;;;;6140711;23;20013;-93
2022/06/20 13:41:12;;;;;;;0.10;0.10;;;;;;;;;;6140551;23;20067;-93
2022/06/20 13:43:44;;;;;;;0.10;0.10;;;;;;;;;;6164445;23;20067;-92
2022/06/20 13:46:18;;;;;;;1.02;0.93;;;;;;;;;;6189250;23;20026;-91
2022/06/20 13:48:55;;;;;;;0.20;0.20;;;;;;;;;;6140401;23;20095;-92
2022/06/20 13:51:25;;;;;;;0.10;0.10;;;;;;;;;;6140922;23;20154;-92
2022/06/20 13:53:53;;;;;;;0.10;0.10;;;;;;;;;;6163908;23;20013;-93
2022/06/20 13:56:26;;;;;;;0.13;0.13;;;;;;;;;;6140252;23;20330;-92
2022/06/20 13:59:11;;;;;;;1.55;1.10;;;;;;;;;;6140374;23;20013;-91
2022/06/20 14:01:38;;;;;;;0.10;0.10;;;;;;;;;;6163992;23;20017;-91
2022/06/20 14:04:08;;;;;;;0.10;0.10;;;;;;;;;;6140495;23;20023;-93
2022/06/20 14:06:46;;;;;;;0.10;0.10;;;;;;;;;;6165698;23;20012;-92
2022/06/20 14:09:17;;;;;;;0.20;0.20;;;;;;;;;;6164766;23;20021;-92
2022/06/20 14:11:44;;;;;;;0.10;0.10;;;;;;;;;;6142496;23;20078;-92
2022/06/20 14:14:18;;;;;;;0.20;0.20;;;;;;;;;;6140218;23;20088;-93
2022/06/20 14:16:46;;;;;;;0.20;0.20;;;;;;;;;;6140926;23;20013;-93
2022/06/20 14:19:20;;;;;;;0.20;0.20;;;;;;;;;;6140890;23;20091;-94
2022/06/20 14:21:48;;;;;;;0.20;0.20;;;;;;;;;;6140765;23;20070;-93
2022/06/20 14:24:17;;;;;;;0.10;0.10;;;;;;;;;;6140575;23;20017;-93
2022/06/20 14:26:43;;;;;;;0.10;0.10;;;;;;;;;;6140210;23;20020;-93
2022/06/20 14:29:19;;;;;;;0.10;0.10;;;;;;;;;;6140634;23;20071;-92
2022/06/20 14:31:54;;;;;;;0.10;0.10;;;;;;;;;;6141192;23;20016;-93
2022/06/20 14:34:34;;;;;;;0.20;0.20;;;;;;;;;;6142598;23;20329;-92
2022/06/20 14:37:06;;;;;;;0.20;0.20;;;;;;;;;;6142186;23;20012;-92
2022/06/20 14:39:33;;;;;;;0.10;0.10;;;;;;;;;;6167133;23;20096;-92
2022/06/20 14:42:04;;;;;;;0.20;0.20;;;;;;;;;;6141871;23;20016;-93
2022/06/20 14:44:40;;;;;;;0.13;0.13;;;;;;;;;;6166740;23;20260;-93
2022/06/20 14:47:14;;;;;;;0.30;0.30;;;;;;;;;;6166286;23;20047;-91
2022/06/20 14:49:46;;;;;;;0.20;0.20;;;;;;;;;;6142464;23;20012;-93
2022/06/20 14:52:18;;;;;;;0.45;0.45;;;;;;;;;;6166512;23;20023;-92
2022/06/20 14:54:52;;;;;;;0.20;0.20;;;;;;;;;;6166654;23;20038;-92
2022/06/20 14:57:21;;;;;;;0.20;0.20;;;;;;;;;;6142258;23;20063;-93
2022/06/20 14:59:53;;;;;;;0.20;0.20;;;;;;;;;;6142481;23;20016;-92
2022/06/20 15:02:41;;;;;;;0.20;0.20;;;;;;;;;;6166042;23;20087;-92
2022/06/20 15:05:22;;;;;;;0.20;0.20;;;;;;;;;;6142206;23;20032;-92
2022/06/20 15:07:52;;;;;;;0.10;0.10;;;;;;;;;;6168239;23;20319;-92
2022/06/20 15:10:21;;;;;;;0.52;0.52;;;;;;;;;;6142457;23;20065;-92
2022/06/20 15:12:49;;;;;;;0.10;0.10;;;;;;;;;;6141768;23;20355;-91
2022/06/20 15:15:18;;;;;;;0.22;0.22;;;;;;;;;;6166613;23;20403;-92
2022/06/20 15:17:44;;;;;;;0.10;0.10;;;;;;;;;;6165828;23;20513;-91
2022/06/20 15:20:17;;;;;;;0.20;0.20;;;;;;;;;;6191302;23;20031;-91
2022/06/20 15:22:53;;;;;;;0.10;0.10;;;;;;;;;;6141615;23;20410;-93
2022/06/20 15:25:31;;;;;;;0.10;0.10;;;;;;;;;;6166124;23;20019;-93
2022/06/20 15:28:14;;;;;;;0.20;0.20;;;;;;;;;;6191025;23;20020;-91
2022/06/20 15:30:50;;;;;;;0.10;0.10;;;;;;;;;;6166519;23;20100;-92
2022/06/20 15:33:31;;;;;;;0.20;0.20;;;;;;;;;;6141993;23;20013;-93
2022/06/20 15:36:08;;;;;;;0.10;0.10;;;;;;;;;;6141880;23;20009;-92
2022/06/20 15:38:41;;;;;;;0.10;0.10;;;;;;;;;;6190700;23;20414;-92
2022/06/20 15:41:08;;;;;;;0.10;0.10;;;;;;;;;;6191015;23;20023;-92
2022/06/20 15:43:34;;;;;;;0.10;0.10;;;;;;;;;;6190558;23;20012;-92
2022/06/20 15:46:02;;;;;;;0.20;0.20;;;;;;;;;;6166151;23;20016;-92
2022/06/20 15:48:33;;;;;;;0.10;0.10;;;;;;;;;;6167459;23;20016;-92
2022/06/20 15:50:59;;;;;;;0.10;0.10;;;;;;;;;;6142362;23;20012;-92
2022/06/20 15:53:44;;;;;;;0.20;0.20;;;;;;;;;;6165539;23;20067;-92
2022/06/20 15:56:16;;;;;;;0.10;0.10;;;;;;;;;;6165863;23;20506;-92
2022/06/20 15:59:01;;;;;;;0.15;0.15;;;;;;;;;;6165739;23;20036;-92
2022/06/20 16:01:36;;;;;;;0.10;0.10;;;;;;;;;;6165822;23;20016;-92
2022/06/20 16:04:26;;;;;;;0.10;0.10;;;;;;;;;;6165560;23;20017;-92
2022/06/20 16:07:07;;;;;;;0.10;0.10;;;;;;;;;;6190704;23;20017;-92
2022/06/20 16:09:55;;;;;;;0.20;0.20;;;;;;;;;;6164965;23;20020;-92
2022/06/20 16:12:22;;;;;;;0.20;0.20;;;;;;;;;;6165344;23;20051;-93
2022/06/20 16:15:04;;;;;;;0.73;0.73;;;;;;;;;;6134111;23;20048;-91
2022/06/20 16:17:45;;;;;;;0.20;0.20;;;;;;;;;;6140247;23;20132;-92
2022/06/20 16:20:13;;;;;;;0.10;0.10;;;;;;;;;;6165717;23;20012;-92
2022/06/20 16:22:42;;;;;;;0.10;0.10;;;;;;;;;;6141448;23;20016;-92
2022/06/20 16:25:33;;;;;;;0.10;0.10;;;;;;;;;;6141768;23;20017;-92
2022/06/20 16:28:17;;;;;;;0.10;0.10;;;;;;;;;;5935248;23;20024;-92
2022/06/20 16:31:30;;;;;;;0.20;0.20;;;;;;;;;;6047973;23;20014;-92
2022/06/20 16:34:02;;;;;;;0.10;0.10;;;;;;;;;;6032749;23;20147;-92
2022/06/20 16:36:43;;;;;;;0.10;0.10;;;;;;;;;;5996463;23;20143;-92
2022/06/20 16:39:15;;;;;;;0.10;0.10;;;;;;;;;;6075091;23;20020;-92
2022/06/20 16:41:41;;;;;;;;;;;;;;;;;;6112268;23;20024;-92
2022/06/20 16:44:16;;;;;;;0.10;0.10;;;;;;;;;;6135976;23;19912;-91
2022/06/20 16:46:45;;;;;;;0.10;0.10;;;;;;;;;;6135936;23;20021;-92
2022/06/20 16:49:30;;;;;;;0.10;0.10;;;;;;;;;;6135828;23;20370;-91
2022/06/20 16:52:15;;;;;;;0.30;0.30;;;;;;;;;;6135884;23;20096;-92
2022/06/20 16:54:53;;;;;;;0.15;0.15;;;;;;;;;;6135670;23;20555;-91
2022/06/20 16:57:47;;;;;;;0.20;0.20;;;;;;;;;;6161154;23;20013;-92
2022/06/20 17:00:35;;;;;;;0.10;0.10;;;;;;;;;;6135445;23;20403;-92
2022/06/20 17:03:19;;;;;;;0.10;0.10;;;;;;;;;;6134454;23;20088;-92
2022/06/20 17:05:59;;;;;;;0.10;0.10;;;;;;;;;;6160378;23;20020;-91
2022/06/20 17:08:28;;;;;;;0.10;0.10;;;;;;;;;;6113483;23;20017;-92
2022/06/20 17:11:09;;;;;;;0.20;0.20;;;;;;;;;;6134763;23;20045;-91
2022/06/20 17:13:57;;;;;;;0.17;0.17;;;;;;;;;;6159885;23;20096;-92
2022/06/20 17:16:35;;;;;;;0.10;0.10;;;;;;;;;;6154988;23;20013;-92
2022/06/20 17:19:09;;;;;;;0.10;0.10;;;;;;;;;;6134877;23;20332;-91
2022/06/20 17:21:54;;;;;;;0.10;0.10;;;;;;;;;;6112544;23;20017;-92
2022/06/20 17:24:40;;;;;;;0.10;0.10;;;;;;;;;;6160699;23;20473;-92
2022/06/20 17:27:34;;;;;;;0.20;0.20;;;;;;;;;;6176170;23;20075;-92
2022/06/20 17:30:09;;;;;;;0.40;0.40;;;;;;;;;;6159720;23;20071;-92
2022/06/20 17:32:41;;;;;;;0.15;0.15;;;;;;;;;;6160122;23;20037;-91
2022/06/20 17:35:47;;;;;;;0.52;0.47;;;;;;;;;;6160185;23;20534;-92
2022/06/20 17:39:14;;;;;;;0.10;0.10;;;;;;;;;;6183944;23;20091;-92
2022/06/20 17:41:35;;;;;;;0.10;0.10;;;;;;;;;;6178034;23;20021;-92
2022/06/20 17:44:12;;;;;;;0.10;0.10;;;;;;;;;;6159900;23;20032;-92
2022/06/20 17:46:47;;;;;;;0.10;0.10;;;;;;;;;;6159778;23;20461;-92
2022/06/20 17:49:22;;;;;;;0.38;0.20;;;;;;;;;;6135399;23;20484;-92
2022/06/20 17:51:59;;;;;;;0.20;0.20;;;;;;;;;;6159633;23;20095;-92
2022/06/20 17:54:28;;;;;;;0.20;0.20;;;;;;;;;;6184553;23;20042;-92
2022/06/20 17:57:14;;;;;;;0.10;0.10;;;;;;;;;;6159325;23;20093;-92
2022/06/20 17:59:59;;;;;;;0.10;0.10;;;;;;;;;;6159531;23;20096;-92
2022/06/20 18:02:44;;;;;;;0.10;0.10;;;;;;;;;;6184521;23;20020;-92
2022/06/20 18:05:26;;;;;;;0.10;0.10;;;;;;;;;;6159540;23;20044;-92
2022/06/20 18:08:11;;;;;;;0.10;0.10;;;;;;;;;;6186047;23;20528;-91
2022/06/20 18:10:41;;;;;;;0.20;0.20;;;;;;;;;;6160551;23;20100;-92
2022/06/20 18:13:26;;;;;;;0.10;0.10;;;;;;;;;;6134476;23;20013;-92
2022/06/20 18:16:14;;;;;;;0.10;0.10;;;;;;;;;;6160116;23;20017;-91
2022/06/20 18:18:48;;;;;;;0.30;0.30;;;;;;;;;;6160226;23;20084;-92
2022/06/20 18:21:18;;;;;;;0.10;0.10;;;;;;;;;;6136494;23;20059;-92
2022/06/20 18:24:12;;;;;;;0.10;0.10;;;;;;;;;;6134919;23;20013;-92
2022/06/20 18:26:59;;;;;;;0.10;0.10;;;;;;;;;;6133758;23;20028;-92
2022/06/20 18:29:25;;;;;;;0.10;0.10;;;;;;;;;;6135381;23;20020;-92
2022/06/20 18:31:55;;;;;;;0.10;0.10;;;;;;;;;;6161164;23;20020;-92
2022/06/20 18:34:34;;;;;;;0.10;0.10;;;;;;;;;;6136099;23;20095;-93
2022/06/20 18:37:16;;;;;;;0.10;0.10;;;;;;;;;;6135902;23;20047;-91
2022/06/20 18:40:05;;;;;;;0.10;0.10;;;;;;;;;;6133896;23;20474;-92
2022/06/20 18:42:45;;;;;;;0.10;0.10;;;;;;;;;;6127726;23;20013;-91
2022/06/20 18:45:33;;;;;;;0.10;0.10;;;;;;;;;;6055011;23;20017;-91
2022/06/20 18:48:39;;;;;;;0.10;0.10;;;;;;;;;;6080724;23;20021;-92
2022/06/20 18:51:23;;;;;;;2.30;0.22;;;;;;;;;;6128850;23;20022;-91
2022/06/20 18:53:54;;;;;;;0.10;0.10;;;;;;;;;;6128925;23;20014;-92
2022/06/20 18:56:51;;;;;;;0.10;0.10;;;;;;;;;;6129059;23;20097;-91
2022/06/20 18:59:38;;;;;;;0.10;0.10;;;;;;;;;;6153910;23;20041;-92
2022/06/20 19:02:10;;;;;;;0.10;0.10;;;;;;;;;;6127875;23;20024;-92
2022/06/20 19:04:44;;;;;;;0.10;0.10;;;;;;;;;;6129025;23;20035;-92
2022/06/20 19:07:32;;;;;;;0.10;0.10;;;;;;;;;;6081279;23;20064;-91
2022/06/20 19:10:24;;;;;;;0.10;0.10;;;;;;;;;;6128573;23;20024;-92
2022/06/20 19:12:55;;;;;;;0.10;0.10;;;;;;;;;;6135726;23;20009;-92
2022/06/20 19:15:34;;;;;;;0.10;0.10;;;;;;;;;;6134310;23;20185;-92
2022/06/20 19:21:34;;;;;;;0.10;0.10;;;;;;;;;;6100983;23;20029;-92
2022/06/20 19:24:10;;;;;;;0.10;0.10;;;;;;;;;;6046240;23;20057;-92
2022/06/20 19:26:46;;;;;;;0.10;0.10;;;;;;;;;;6054137;23;20017;-91
2022/06/20 19:29:17;;;;;;;0.10;0.10;;;;;;;;;;6053942;23;20028;-92
2022/06/20 19:31:49;;;;;;;0.10;0.10;;;;;;;;;;6125235;23;20021;-92
2022/06/20 19:34:31;;;;;;;0.10;0.10;;;;;;;;;;6161264;23;20351;-92
2022/06/20 19:37:33;;;;;;;0.10;0.10;;;;;;;;;;6138062;23;20446;-92
2022/06/20 19:40:07;;;;;;;0.10;0.10;;;;;;;;;;6103218;23;20010;-92
2022/06/20 19:43:01;;;;;;;0.10;0.10;;;;;;;;;;6082325;23;20407;-92
2022/06/20 19:45:34;;;;;;;0.10;0.10;;;;;;;;;;6136022;23;20016;-92
2022/06/20 19:48:00;;;;;;;0.10;0.10;;;;;;;;;;6137001;23;20067;-93
2022/06/20 19:50:48;;;;;;;0.10;0.10;;;;;;;;;;6137235;23;20017;-92
2022/06/20 19:53:35;;;;;;;0.10;0.10;;;;;;;;;;6137544;23;20009;-92
2022/06/20 19:56:05;;;;;;;0.10;0.10;;;;;;;;;;6161014;23;20019;-92
2022/06/20 19:58:50;;;;;;;0.10;0.10;;;;;;;;;;6137297;23;20012;-92
2022/06/20 20:01:22;;;;;;;0.10;0.10;;;;;;;;;;6160535;23;20013;-92
2022/06/20 20:04:06;;;;;;;0.10;0.10;;;;;;;;;;6186204;23;20013;-92
2022/06/20 20:06:57;;;;;;;0.10;0.10;;;;;;;;;;6161156;23;20032;-92
2022/06/20 20:09:23;;;;;;;0.10;0.10;;;;;;;;;;6186249;23;20517;-92
2022/06/20 20:11:49;;;;;;;0.10;0.10;;;;;;;;;;6136519;23;20021;-92
2022/06/20 20:14:15;;;;;;;0.10;0.10;;;;;;;;;;6136487;23;20091;-92
2022/06/20 20:16:41;;;;;;;0.10;0.10;;;;;;;;;;6136648;23;20092;-92
2022/06/20 20:19:13;;;;;;;0.10;0.10;;;;;;;;;;6160947;23;20020;-92
2022/06/20 20:21:46;;;;;;;0.10;0.10;;;;;;;;;;6161212;23;20013;-93
2022/06/20 20:24:13;;;;;;;0.10;0.10;;;;;;;;;;6136324;23;20493;-92
2022/06/20 20:26:52;;;;;;;0.10;0.10;;;;;;;;;;6141164;23;20405;-91
2022/06/20 20:29:18;;;;;;;0.10;0.10;;;;;;;;;;6165872;23;20016;-92
2022/06/20 20:31:48;;;;;;;0.10;0.10;;;;;;;;;;6165880;23;20450;-92
2022/06/20 20:34:23;;;;;;;0.10;0.10;;;;;;;;;;6166120;23;20013;-92
2022/06/20 20:36:52;;;;;;;0.10;0.10;;;;;;;;;;6166184;23;20051;-92
2022/06/20 20:39:37;;;;;;;0.10;0.10;;;;;;;;;;6192719;23;20013;-92
2022/06/20 20:42:17;;;;;;;0.28;0.28;;;;;;;;;;6168266;23;20083;-92
2022/06/20 20:44:48;;;;;;;0.10;0.10;;;;;;;;;;6142635;23;20426;-92
2022/06/20 20:47:23;;;;;;;0.10;0.10;;;;;;;;;;6141274;23;20023;-92
2022/06/20 20:50:19;;;;;;;0.10;0.10;;;;;;;;;;6143140;23;20047;-91
2022/06/20 20:52:48;;;;;;;0.10;0.10;;;;;;;;;;6162200;23;20008;-93
2022/06/20 20:55:14;;;;;;;0.10;0.10;;;;;;;;;;6141362;23;20091;-92
2022/06/20 20:57:44;;;;;;;0.10;0.10;;;;;;;;;;6141892;23;20438;-92
2022/06/20 21:00:18;;;;;;;0.10;0.10;;;;;;;;;;6141293;23;20019;-92
2022/06/20 21:02:54;;;;;;;0.10;0.10;;;;;;;;;;6141220;23;20095;-92
2022/06/20 21:05:25;;;;;;;0.10;0.10;;;;;;;;;;6141340;23;20023;-92
2022/06/20 21:07:52;;;;;;;0.10;0.10;;;;;;;;;;6141165;23;20058;-93
2022/06/20 21:10:26;;;;;;;0.10;0.10;;;;;;;;;;6140636;23;20023;-93
2022/06/20 21:12:53;;;;;;;0.10;0.10;;;;;;;;;;6141040;23;20012;-91
2022/06/20 21:15:33;;;;;;;0.10;0.10;;;;;;;;;;6141078;23;20019;-92
2022/06/20 21:18:00;;;;;;;0.10;0.10;;;;;;;;;;6141414;23;20454;-93
2022/06/20 21:20:33;;;;;;;0.10;0.10;;;;;;;;;;6141125;23;20026;-92
2022/06/20 21:22:59;;;;;;;0.20;0.20;;;;;;;;;;6141069;23;20013;-92
2022/06/20 21:25:26;;;;;;;0.10;0.10;;;;;;;;;;6141065;23;20051;-93
2022/06/20 21:27:52;;;;;;;0.15;0.15;;;;;;;;;;6140957;23;20035;-92
2022/06/20 21:30:20;;;;;;;0.10;0.10;;;;;;;;;;6141115;23;20017;-92
2022/06/20 21:32:46;;;;;;;0.10;0.10;;;;;;;;;;6140145;23;20017;-93
2022/06/20 21:35:14;;;;;;;0.10;0.10;;;;;;;;;;6140982;23;20075;-92
2022/06/20 21:37:40;;;;;;;0.10;0.10;;;;;;;;;;6165247;23;20043;-93
2022/06/20 21:40:15;;;;;;;0.10;0.10;;;;;;;;;;6140437;23;20039;-92
2022/06/20 21:42:43;;;;;;;0.10;0.10;;;;;;;;;;6165284;23;20017;-92
2022/06/20 21:45:13;;;;;;;0.10;0.10;;;;;;;;;;6140440;23;20031;-92